Time;durP1;ratioP1;P1;durP2;ratioP2;P2;SDS_P1;SDS_P2;PMS_P1;PMS_P2;Temp;Humidity;BMP_temperature;BMP_pressure;BME280_temperature;BME280_humidity;BME280_pressure;Samples;Min_cycle;Max_cycle;Signal;HPM_P1;HPM_P2
2022/12/16 00:00:21;;;;;;;32.22;22.08;;;;;;;-3.04;87.75;146579.31;5023332;28;20307;-62
2022/12/16 00:02:47;;;;;;;31.40;21.50;;;;;;;-3.06;86.91;146574.28;5038403;28;20107;-62
2022/12/16 00:05:12;;;;;;;28.25;20.50;;;;;;;-3.06;86.53;146573.03;5032567;28;20025;-62
2022/12/16 00:07:38;;;;;;;28.90;19.33;;;;;;;-3.14;86.59;146555.22;5028835;28;20298;-62
2022/12/16 00:10:05;;;;;;;31.92;20.90;;;;;;;-3.05;87.12;146576.81;5042876;28;20040;-61
2022/12/16 00:12:31;;;;;;;28.60;20.00;;;;;;;-2.87;87.19;146619.91;5030809;28;20033;-62
2022/12/16 00:14:56;;;;;;;27.55;19.00;;;;;;;-2.96;87.08;146598.38;5022870;28;20084;-62
2022/12/16 00:17:22;;;;;;;30.45;19.40;;;;;;;-2.92;86.90;146607.22;5023412;28;20038;-62
2022/12/16 00:19:47;;;;;;;28.50;19.30;;;;;;;-2.84;86.92;146627.53;5030027;28;20096;-63
2022/12/16 00:22:13;;;;;;;30.58;19.00;;;;;;;-2.98;86.64;146593.28;5038708;28;20093;-62
2022/12/16 00:24:38;;;;;;;27.30;18.63;;;;;;;-2.88;86.65;146618.66;5041781;28;20018;-61
2022/12/16 00:27:04;;;;;;;28.27;19.27;;;;;;;-2.97;86.70;146597.06;5042745;28;20028;-62
2022/12/16 00:29:29;;;;;;;27.92;18.50;;;;;;;-2.86;87.05;146623.72;5030096;28;20034;-61
2022/12/16 00:31:55;;;;;;;27.23;18.80;;;;;;;-2.80;86.95;146637.69;5030570;28;20048;-61
2022/12/16 00:34:20;;;;;;;27.65;18.73;;;;;;;-2.68;86.41;146668.13;5039881;28;20026;-62
2022/12/16 00:36:46;;;;;;;27.15;18.55;;;;;;;-2.72;86.72;146656.69;5023348;28;20033;-62
2022/12/16 00:39:11;;;;;;;30.38;19.10;;;;;;;-2.66;86.73;146673.19;5032200;28;20022;-62
2022/12/16 00:41:37;;;;;;;26.33;18.63;;;;;;;-2.65;86.64;146675.72;5022783;28;20097;-62
2022/12/16 00:44:03;;;;;;;28.30;18.80;;;;;;;-2.55;86.26;146698.53;5022841;28;20026;-61
2022/12/16 00:46:28;;;;;;;28.80;18.13;;;;;;;-2.48;87.58;146717.59;5027150;28;20028;-63
2022/12/16 00:48:54;;;;;;;24.40;17.00;;;;;;;-2.49;86.18;146713.78;5042887;28;20028;-62
2022/12/16 00:51:20;;;;;;;24.60;17.27;;;;;;;-2.73;86.69;146655.44;5023709;28;20030;-62
2022/12/16 00:53:45;;;;;;;28.40;18.45;;;;;;;-2.73;86.39;146654.19;5037383;28;20076;-62
2022/12/16 00:56:14;;;;;;;25.13;17.63;;;;;;;-2.67;86.73;146670.63;5032889;28;20029;-61
2022/12/16 00:58:40;;;;;;;24.88;16.73;;;;;;;-2.59;86.84;146689.69;5027198;28;20029;-61
2022/12/16 01:01:06;;;;;;;26.92;18.33;;;;;;;-2.56;86.86;146696.03;5041600;28;20092;-62
2022/12/16 01:03:33;;;;;;;23.80;16.50;;;;;;;-2.60;87.27;146688.38;5022819;28;20026;-61
2022/12/16 01:05:58;;;;;;;25.08;16.90;;;;;;;-2.61;87.25;146684.59;5038551;28;20039;-62
2022/12/16 01:08:24;;;;;;;27.42;17.80;;;;;;;-2.62;87.73;146683.34;5031240;28;20049;-62
2022/12/16 01:10:52;;;;;;;24.63;16.95;;;;;;;-2.80;87.79;146637.69;5022727;28;20022;-61
2022/12/16 01:13:18;;;;;;;24.98;17.00;;;;;;;-2.57;87.71;146694.75;5028299;28;20021;-64
2022/12/16 01:15:43;;;;;;;25.83;17.70;;;;;;;-2.52;86.90;146707.44;5031636;28;20329;-61
2022/12/16 01:18:09;;;;;;;28.40;16.92;;;;;;;-2.48;87.58;146716.28;5037962;28;20057;-61
2022/12/16 01:20:35;;;;;;;24.88;17.13;;;;;;;-2.54;87.64;146701.09;5030386;28;20025;-61
2022/12/16 01:23:01;;;;;;;25.58;16.75;;;;;;;-2.38;87.27;146741.72;5034998;28;20064;-61
2022/12/16 01:25:27;;;;;;;26.75;16.88;;;;;;;-2.48;87.58;146716.28;5026008;28;20022;-61
2022/12/16 01:27:52;;;;;;;25.25;16.63;;;;;;;-2.41;88.38;146732.81;5025894;28;20032;-62
2022/12/16 01:30:18;;;;;;;24.38;16.33;;;;;;;-2.32;87.92;146755.66;5031372;28;20080;-61
2022/12/16 01:32:44;;;;;;;22.17;15.63;;;;;;;-2.33;86.89;146754.38;5031237;28;20029;-61
2022/12/16 01:35:09;;;;;;;21.75;15.73;;;;;;;-2.35;86.80;146749.31;5045459;28;20041;-61
2022/12/16 01:37:35;;;;;;;21.70;15.23;;;;;;;-2.37;88.18;146744.22;5045677;28;20363;-62
2022/12/16 01:40:01;;;;;;;24.40;16.15;;;;;;;-2.22;87.88;146779.72;5029585;28;20041;-62
2022/12/16 01:42:29;;;;;;;22.15;15.98;;;;;;;-2.33;87.92;146753.13;5036987;28;20040;-61
2022/12/16 01:44:56;;;;;;;22.08;15.32;;;;;;;-2.20;87.35;146784.81;5045406;28;20039;-61
2022/12/16 01:47:26;;;;;;;22.52;15.38;;;;;;;-2.26;87.72;146772.13;5028056;28;20034;-62
2022/12/16 01:50:01;;;;;;;20.52;14.52;;;;;;;-2.22;87.67;146781.03;5025858;28;20036;-62
2022/12/16 01:52:35;;;;;;;21.70;15.32;;;;;;;-2.32;87.93;146755.66;5044976;28;20037;-62
2022/12/16 01:55:08;;;;;;;19.98;14.68;;;;;;;-2.27;88.40;146769.63;5029644;28;20048;-62
2022/12/16 01:57:42;;;;;;;19.70;13.95;;;;;;;-2.19;88.55;146787.38;5025505;28;20041;-62
2022/12/16 02:00:09;;;;;;;19.45;13.50;;;;;;;-2.27;88.10;146769.63;5033566;28;20033;-62
2022/12/16 02:02:35;;;;;;;20.38;14.40;;;;;;;-2.22;88.09;146779.72;5045095;28;20025;-62
2022/12/16 02:05:19;;;;;;;21.10;14.55;;;;;;;-2.17;88.84;146792.44;5045108;28;20056;-62
2022/12/16 02:07:51;;;;;;;21.38;14.63;;;;;;;-2.07;88.38;146817.81;5025455;28;20034;-63
2022/12/16 02:10:17;;;;;;;19.95;14.27;;;;;;;-2.15;87.44;146798.78;5042835;28;20040;-62
2022/12/16 02:13:17;;;;;;;18.92;13.98;;;;;;;-2.08;88.29;146815.31;5044299;28;20085;-62
2022/12/16 02:16:02;;;;;;;20.98;13.60;;;;;;;-2.07;87.76;146817.81;5046901;28;20052;-62
2022/12/16 02:18:46;;;;;;;18.17;12.98;;;;;;;-2.03;88.78;146826.72;5034095;28;20076;-61
2022/12/16 02:21:29;;;;;;;19.90;13.75;;;;;;;-2.06;88.55;146820.34;5033607;28;20060;-61
2022/12/16 02:24:13;;;;;;;18.20;13.23;;;;;;;-1.99;88.72;146836.88;5031407;28;20052;-62
2022/12/16 02:26:59;;;;;;;21.92;13.80;;;;;;;-1.93;87.54;146853.34;5044704;28;20033;-62
2022/12/16 02:29:49;;;;;;;16.23;12.45;;;;;;;-1.91;87.81;146857.13;5042411;28;20025;-63
2022/12/16 02:32:53;;;;;;;19.33;13.02;;;;;;;-1.90;87.86;146859.69;5043981;28;20128;-63
2022/12/16 02:35:19;;;;;;;18.58;13.32;;;;;;;-1.85;89.24;146871.09;5046775;28;20037;-63
2022/12/16 02:37:54;;;;;;;18.38;12.45;;;;;;;-1.89;88.95;146861.00;5023680;28;20046;-62
2022/12/16 02:40:27;;;;;;;18.33;12.48;;;;;;;-1.99;88.49;146838.13;5042324;28;20048;-62
2022/12/16 02:43:01;;;;;;;19.67;13.38;;;;;;;-2.06;88.52;146819.09;5030347;28;20028;-63
2022/12/16 02:45:31;;;;;;;20.30;13.63;;;;;;;-1.98;89.19;146839.38;5034989;28;20356;-63
2022/12/16 02:47:56;;;;;;;16.13;11.70;;;;;;;-1.97;88.93;146843.19;5031885;28;20060;-62
2022/12/16 02:50:36;;;;;;;19.35;13.38;;;;;;;-1.93;89.19;146853.34;5026260;28;20237;-63
2022/12/16 02:53:04;;;;;;;18.42;12.65;;;;;;;-1.95;88.35;146848.28;5044270;28;20118;-63
2022/12/16 02:56:02;;;;;;;15.70;11.55;;;;;;;-1.72;88.94;146904.13;5024963;28;20230;-63
2022/12/16 02:59:01;;;;;;;17.77;12.10;;;;;;;-1.70;87.29;146909.19;5043044;28;20090;-62
2022/12/16 03:01:41;;;;;;;16.65;12.18;;;;;;;-1.86;88.99;146869.84;5025448;28;20041;-63
2022/12/16 03:04:18;;;;;;;15.85;11.73;;;;;;;-1.75;88.67;146896.53;5024081;28;20060;-62
2022/12/16 03:06:48;;;;;;;15.60;11.07;;;;;;;-1.86;89.10;146869.84;5036909;28;20029;-63
2022/12/16 03:09:17;;;;;;;15.68;11.13;;;;;;;-1.81;88.68;146882.56;5034072;28;20060;-62
2022/12/16 03:11:45;;;;;;;16.17;11.35;;;;;;;-1.65;88.04;146921.91;5024964;28;20093;-63
2022/12/16 03:14:15;;;;;;;14.82;10.98;;;;;;;-1.86;88.68;146869.84;5037762;28;20025;-62
2022/12/16 03:16:42;;;;;;;14.98;10.82;;;;;;;-1.65;89.15;146921.91;5043898;28;20318;-62
2022/12/16 03:19:10;;;;;;;14.38;11.48;;;;;;;-1.66;88.28;146918.09;5043792;28;20035;-62
2022/12/16 03:21:58;;;;;;;14.98;11.43;;;;;;;-1.76;89.10;146893.97;5033050;28;20038;-62
2022/12/16 03:24:24;;;;;;;16.08;11.52;;;;;;;-1.71;88.29;146906.69;5034041;28;20029;-62
2022/12/16 03:27:04;;;;;;;15.27;10.98;;;;;;;-1.72;88.24;146904.13;5029577;28;20088;-61
2022/12/16 03:29:48;;;;;;;16.60;11.93;;;;;;;-1.67;88.78;146916.81;5040932;28;20025;-62
2022/12/16 03:32:39;;;;;;;15.20;11.13;;;;;;;-1.54;88.34;146948.53;5023560;28;20096;-62
2022/12/16 03:35:18;;;;;;;16.25;11.63;;;;;;;-1.50;88.13;146957.44;5045623;28;20037;-62
2022/12/16 03:37:46;;;;;;;16.80;11.15;;;;;;;-1.55;87.90;146946.03;5023796;28;20033;-62
2022/12/16 03:40:13;;;;;;;15.95;11.80;;;;;;;-1.46;88.10;146967.59;5039796;28;20037;-62
2022/12/16 03:42:41;;;;;;;18.42;11.55;;;;;;;-1.41;87.77;146981.56;5043363;28;20029;-62
2022/12/16 03:45:14;;;;;;;16.52;12.10;;;;;;;-1.53;88.56;146949.84;5036065;28;20052;-62
2022/12/16 03:47:40;;;;;;;16.42;11.40;;;;;;;-1.44;88.05;146972.66;5026438;28;20072;-62
2022/12/16 03:50:06;;;;;;;16.85;12.95;;;;;;;-1.42;88.05;146977.78;5043192;28;20033;-62
2022/12/16 03:52:31;;;;;;;16.65;11.52;;;;;;;-1.33;87.94;146999.34;5024543;28;20102;-63
2022/12/16 03:54:57;;;;;;;16.02;11.32;;;;;;;-1.45;88.50;146971.41;5037427;28;20092;-63
2022/12/16 03:57:23;;;;;;;16.33;11.20;;;;;;;-1.46;88.28;146968.88;5033860;28;20044;-62
2022/12/16 03:59:48;;;;;;;16.75;11.70;;;;;;;-1.47;87.97;146966.34;5027910;28;20345;-61
2022/12/16 04:02:14;;;;;;;16.67;11.90;;;;;;;-1.42;88.43;146979.03;5042926;28;20041;-64
2022/12/16 04:04:39;;;;;;;17.00;11.73;;;;;;;-1.39;88.52;146985.38;5023189;28;20030;-64
2022/12/16 04:07:20;;;;;;;18.67;12.48;;;;;;;-1.68;88.50;146914.28;5038159;28;20029;-63
2022/12/16 04:09:49;;;;;;;16.60;12.00;;;;;;;-1.41;88.49;146980.28;5030551;28;20042;-64
2022/12/16 04:26:03;;;;;;;14.38;10.65;;;;;;;-1.23;88.22;147026.03;5042583;28;20393;-63
2022/12/16 04:28:29;;;;;;;14.40;10.48;;;;;;;-1.39;87.32;146986.63;5023906;28;20026;-64
2022/12/16 04:30:55;;;;;;;15.13;11.18;;;;;;;-1.23;88.20;147026.03;5022498;28;20072;-63
